Terminal Aerodrome Forecast
Issued by NWS Bismarck, ND

Home | Current Version | Previous Version | Graphics & Text | Print | Product List | Glossary On
Versions: 1 2 3 4 5 6 7 8 9 10 11 12 13 14 15 16 17 18 19
541
FTUS43 KBIS 202024 AAB
TAFISN
TAF AMD
KISN 202024Z 2020/2118 33015G24KT P6SM SCT250
     FM210000 35010KT P6SM SKC
     FM210500 03007KT P6SM SCT200
     FM211000 06007KT P6SM SCT120
     FM211400 09007KT P6SM SCT060=

USA.gov is the U.S. government's official web portal to all federal, state and local government web resources and services.